Time;durP1;ratioP1;P1;durP2;ratioP2;P2;SDS_P1;SDS_P2;PMS_P1;PMS_P2;Temp;Humidity;BMP_temperature;BMP_pressure;BME280_temperature;BME280_humidity;BME280_pressure;Samples;Min_cycle;Max_cycle;Signal;HPM_P1;HPM_P2
2023/05/31 00:00:00;;;;;;;12.68;4.80;;;;;;;;;;5045946;28;20022;-77
2023/05/31 00:02:26;;;;;;;13.88;3.70;;;;;;;;;;5034250;28;20546;-77
2023/05/31 00:04:52;;;;;;;5.13;2.80;;;;;;;;;;5050280;28;20017;-77
2023/05/31 00:07:18;;;;;;;7.35;2.90;;;;;;;;;;5034954;28;20095;-77
2023/05/31 00:09:44;;;;;;;7.00;3.70;;;;;;;;;;5022666;28;20027;-77
2023/05/31 00:12:19;;;;;;;8.38;2.88;;;;;;;;;;5054042;28;20029;-78
2023/05/31 00:14:46;;;;;;;5.25;2.72;;;;;;;;;;5040914;28;20021;-78
2023/05/31 00:17:12;;;;;;;6.13;3.25;;;;;;;;;;5050428;28;20057;-77
2023/05/31 00:19:39;;;;;;;4.10;2.95;;;;;;;;;;5020425;28;20517;-78
2023/05/31 00:22:10;;;;;;;6.32;3.22;;;;;;;;;;5045418;28;20040;-78
2023/05/31 00:24:37;;;;;;;7.82;3.30;;;;;;;;;;5037961;28;20036;-78
2023/05/31 00:27:05;;;;;;;6.13;3.00;;;;;;;;;;5037707;28;20021;-77
2023/05/31 00:29:31;;;;;;;5.20;2.83;;;;;;;;;;5052984;28;20025;-77
2023/05/31 00:32:26;;;;;;;4.50;3.10;;;;;;;;;;5044401;28;20025;-77
2023/05/31 00:35:30;;;;;;;5.00;2.95;;;;;;;;;;5040711;28;20033;-77
2023/05/31 00:37:56;;;;;;;4.85;3.10;;;;;;;;;;5041387;28;20554;-77
2023/05/31 00:40:31;;;;;;;4.20;2.55;;;;;;;;;;5049888;28;20094;-78
2023/05/31 00:42:57;;;;;;;7.00;3.15;;;;;;;;;;5045456;28;20021;-78
2023/05/31 00:45:41;;;;;;;5.20;2.78;;;;;;;;;;5059017;28;20466;-78
2023/05/31 00:48:08;;;;;;;5.75;2.92;;;;;;;;;;5020265;28;20053;-78
2023/05/31 00:50:34;;;;;;;6.32;3.35;;;;;;;;;;5047935;28;20025;-77
2023/05/31 00:53:09;;;;;;;4.95;2.80;;;;;;;;;;5040694;28;20025;-78
2023/05/31 00:55:44;;;;;;;8.10;3.17;;;;;;;;;;5050765;28;20022;-78
2023/05/31 00:58:14;;;;;;;8.13;3.50;;;;;;;;;;5035888;28;20033;-78
2023/05/31 01:03:27;;;;;;;10.43;3.20;;;;;;;;;;5150544;23;20392;-78
2023/05/31 01:06:01;;;;;;;6.57;3.30;;;;;;;;;;5048078;28;20408;-77
2023/05/31 01:08:28;;;;;;;6.30;2.90;;;;;;;;;;5046742;28;20105;-77
2023/05/31 01:11:02;;;;;;;7.15;3.00;;;;;;;;;;5023939;28;20017;-78
2023/05/31 01:20:03;;;;;;;4.57;3.10;;;;;;;;;;4958205;28;20058;-79
2023/05/31 01:22:35;;;;;;;7.57;2.88;;;;;;;;;;5036165;23;20065;-72
2023/05/31 01:25:20;;;;;;;7.57;3.38;;;;;;;;;;5033251;28;20022;-73
2023/05/31 01:27:47;;;;;;;8.20;2.83;;;;;;;;;;5014262;28;20056;-72
2023/05/31 01:30:13;;;;;;;5.75;2.72;;;;;;;;;;5031684;28;20450;-73
2023/05/31 01:32:41;;;;;;;7.90;3.08;;;;;;;;;;5044802;28;20033;-73
2023/05/31 01:35:07;;;;;;;7.65;3.03;;;;;;;;;;5048238;28;20514;-73
2023/05/31 01:37:33;;;;;;;5.68;2.95;;;;;;;;;;5034949;28;20075;-73
2023/05/31 01:39:59;;;;;;;7.35;2.90;;;;;;;;;;5043681;28;20029;-73
2023/05/31 01:42:26;;;;;;;5.72;3.22;;;;;;;;;;5042741;28;20017;-73
2023/05/31 01:44:53;;;;;;;4.72;3.03;;;;;;;;;;5039630;28;20073;-73
2023/05/31 01:47:19;;;;;;;6.50;3.67;;;;;;;;;;5034326;28;20814;-73
2023/05/31 01:49:46;;;;;;;7.35;3.33;;;;;;;;;;5045561;28;20017;-73
2023/05/31 01:52:13;;;;;;;7.53;3.20;;;;;;;;;;5040626;28;20049;-73
2023/05/31 01:54:39;;;;;;;7.15;3.30;;;;;;;;;;5044447;28;20029;-73
2023/05/31 01:57:06;;;;;;;6.65;3.38;;;;;;;;;;5033991;28;20049;-73
2023/05/31 01:59:36;;;;;;;8.93;3.50;;;;;;;;;;5028939;28;20075;-73
2023/05/31 02:02:02;;;;;;;4.50;2.70;;;;;;;;;;5040137;28;20021;-73
2023/05/31 02:04:28;;;;;;;5.63;3.10;;;;;;;;;;5039837;28;20013;-73
2023/05/31 02:06:54;;;;;;;5.47;3.17;;;;;;;;;;5042211;28;20093;-73
2023/05/31 02:09:23;;;;;;;7.18;3.45;;;;;;;;;;5041743;28;20079;-73
2023/05/31 02:11:49;;;;;;;7.32;3.38;;;;;;;;;;5044672;28;20021;-73
2023/05/31 02:14:16;;;;;;;7.13;2.90;;;;;;;;;;5019351;28;20392;-73
2023/05/31 02:16:42;;;;;;;5.05;3.08;;;;;;;;;;5039450;28;20090;-73
2023/05/31 02:19:08;;;;;;;7.47;3.38;;;;;;;;;;5041177;28;20036;-74
2023/05/31 02:21:37;;;;;;;5.80;3.38;;;;;;;;;;5043471;28;20013;-73
2023/05/31 02:24:03;;;;;;;10.45;3.45;;;;;;;;;;5039713;28;20021;-73
2023/05/31 02:26:29;;;;;;;7.80;3.40;;;;;;;;;;5049329;28;20046;-73
2023/05/31 02:28:55;;;;;;;3.88;3.15;;;;;;;;;;5034239;28;20021;-74
2023/05/31 02:31:21;;;;;;;3.80;3.10;;;;;;;;;;5046109;28;20025;-73
2023/05/31 02:33:48;;;;;;;9.02;3.13;;;;;;;;;;5038900;28;20391;-73
2023/05/31 02:36:14;;;;;;;7.97;3.05;;;;;;;;;;5035718;28;20107;-73
2023/05/31 02:38:40;;;;;;;6.20;3.47;;;;;;;;;;5042108;28;20498;-73
2023/05/31 02:41:06;;;;;;;7.20;3.53;;;;;;;;;;5034057;28;20100;-73
2023/05/31 02:43:32;;;;;;;9.30;3.75;;;;;;;;;;5043962;28;20028;-74
2023/05/31 02:46:01;;;;;;;6.07;3.63;;;;;;;;;;5039083;28;20021;-73
2023/05/31 02:48:27;;;;;;;5.47;3.10;;;;;;;;;;5023770;28;20028;-73
2023/05/31 02:50:53;;;;;;;6.45;3.08;;;;;;;;;;5034751;28;20024;-73
2023/05/31 02:53:19;;;;;;;5.32;3.15;;;;;;;;;;5047061;28;20112;-74
2023/05/31 02:55:46;;;;;;;9.50;3.03;;;;;;;;;;5037121;28;20021;-74
2023/05/31 02:58:14;;;;;;;5.57;3.35;;;;;;;;;;5040004;28;20096;-74
2023/05/31 03:00:40;;;;;;;4.80;3.08;;;;;;;;;;5044851;28;20039;-73
2023/05/31 03:03:06;;;;;;;7.90;3.40;;;;;;;;;;5034140;28;20092;-73
2023/05/31 03:05:33;;;;;;;4.45;2.80;;;;;;;;;;5028519;28;20014;-73
2023/05/31 03:07:59;;;;;;;7.53;3.63;;;;;;;;;;5038067;28;20083;-73
2023/05/31 03:10:25;;;;;;;6.00;3.38;;;;;;;;;;5038833;28;20072;-73
2023/05/31 03:12:51;;;;;;;5.10;3.17;;;;;;;;;;5048542;28;20025;-73
2023/05/31 03:15:17;;;;;;;5.80;3.13;;;;;;;;;;5039244;28;20137;-74
2023/05/31 03:17:43;;;;;;;6.13;3.15;;;;;;;;;;5047452;28;20468;-73
2023/05/31 03:20:10;;;;;;;8.75;3.30;;;;;;;;;;5041964;28;20021;-73
2023/05/31 03:22:37;;;;;;;4.88;3.53;;;;;;;;;;5037824;28;20053;-73
2023/05/31 03:25:03;;;;;;;5.15;2.92;;;;;;;;;;5046939;28;20017;-72
2023/05/31 03:27:30;;;;;;;6.57;3.67;;;;;;;;;;5034173;28;20513;-71
2023/05/31 03:29:56;;;;;;;5.50;3.72;;;;;;;;;;5042764;28;20025;-72
2023/05/31 03:32:22;;;;;;;7.40;3.00;;;;;;;;;;5041575;28;20035;-71
2023/05/31 03:34:48;;;;;;;5.97;3.35;;;;;;;;;;5035523;28;20515;-72
2023/05/31 03:37:14;;;;;;;4.88;2.92;;;;;;;;;;5045997;28;20021;-72
2023/05/31 03:39:40;;;;;;;7.38;3.35;;;;;;;;;;5035553;28;20049;-72
2023/05/31 03:42:06;;;;;;;3.78;2.70;;;;;;;;;;5041106;28;20049;-73
2023/05/31 03:44:32;;;;;;;5.00;2.83;;;;;;;;;;5043108;28;20025;-72
2023/05/31 03:46:58;;;;;;;5.70;2.90;;;;;;;;;;5018945;28;20025;-72
2023/05/31 03:49:25;;;;;;;10.02;3.30;;;;;;;;;;5046280;28;20028;-72
2023/05/31 03:51:51;;;;;;;4.53;2.72;;;;;;;;;;5037276;28;20471;-73
2023/05/31 03:54:17;;;;;;;6.63;2.97;;;;;;;;;;5021517;28;20030;-72
2023/05/31 03:56:43;;;;;;;3.67;2.50;;;;;;;;;;5044390;28;20029;-73
2023/05/31 03:59:09;;;;;;;5.25;2.92;;;;;;;;;;5032682;28;20041;-73
2023/05/31 04:01:35;;;;;;;5.55;3.00;;;;;;;;;;5047903;28;20017;-73
2023/05/31 04:04:01;;;;;;;4.55;2.83;;;;;;;;;;5042779;28;20075;-74
2023/05/31 04:06:28;;;;;;;6.57;3.38;;;;;;;;;;5043935;28;20021;-73
2023/05/31 04:08:54;;;;;;;4.72;2.72;;;;;;;;;;5049253;28;20036;-74
2023/05/31 04:11:20;;;;;;;7.63;3.13;;;;;;;;;;5036958;28;20086;-74
2023/05/31 04:13:46;;;;;;;3.72;2.58;;;;;;;;;;5027373;28;20018;-74
2023/05/31 04:16:12;;;;;;;6.32;2.67;;;;;;;;;;5042025;28;20428;-75
2023/05/31 04:18:39;;;;;;;4.50;2.60;;;;;;;;;;5014978;28;20203;-74
2023/05/31 04:21:06;;;;;;;4.88;2.55;;;;;;;;;;5043994;28;20021;-74
2023/05/31 04:23:34;;;;;;;7.60;2.90;;;;;;;;;;5052641;28;20028;-74
2023/05/31 04:26:01;;;;;;;3.25;2.35;;;;;;;;;;5045094;28;20020;-74
2023/05/31 04:28:29;;;;;;;5.15;2.88;;;23.40;34.50;;;;;;5042229;28;20051;-73
2023/05/31 04:30:56;;;;;;;4.25;3.10;;;23.50;34.10;;;;;;5037168;28;20126;-74
2023/05/31 04:33:22;;;;;;;2.97;2.47;;;24.10;33.30;;;;;;5049441;28;20029;-74
2023/05/31 04:35:49;;;;;;;4.03;2.45;;;24.70;32.50;;;;;;5039549;28;20482;-73
2023/05/31 04:38:16;;;;;;;6.38;2.80;;;25.20;32.00;;;;;;5042763;28;20116;-74
2023/05/31 04:40:42;;;;;;;5.93;2.80;;;25.60;30.60;;;;;;5038929;28;20101;-73
2023/05/31 04:43:08;;;;;;;8.55;2.83;;;;;;;;;;5043571;28;20030;-74
2023/05/31 04:45:33;;;;;;;6.03;2.90;;;25.40;31.60;;;;;;5043047;28;20022;-74
2023/05/31 04:47:59;;;;;;;8.13;2.60;;;25.80;31.20;;;;;;5027256;28;20399;-73
2023/05/31 04:50:25;;;;;;;6.05;2.50;;;;;;;;;;5039008;28;20017;-74
2023/05/31 04:52:51;;;;;;;3.70;2.45;;;25.20;31.10;;;;;;5046272;28;20052;-74
2023/05/31 04:55:17;;;;;;;3.83;2.83;;;25.50;30.70;;;;;;5034012;28;20432;-75
2023/05/31 04:57:43;;;;;;;8.18;3.03;;;;;;;;;;5026266;28;20025;-75
2023/05/31 05:00:11;;;;;;;4.03;2.65;;;25.40;31.40;;;;;;5031876;28;20412;-73
2023/05/31 05:02:37;;;;;;;6.47;2.60;;;26.10;30.00;;;;;;5046027;28;20025;-73
2023/05/31 05:05:06;;;;;;;5.78;2.65;;;25.80;30.00;;;;;;5035476;28;20022;-73
2023/05/31 05:07:32;;;;;;;5.93;2.70;;;;;;;;;;5047256;28;20041;-71
2023/05/31 05:09:58;;;;;;;3.42;2.33;;;25.50;31.30;;;;;;5022701;28;20025;-73
2023/05/31 05:12:24;;;;;;;5.20;2.63;;;25.90;30.60;;;;;;5040267;28;20101;-73
2023/05/31 05:14:49;;;;;;;5.15;2.40;;;27.10;28.40;;;;;;5047296;28;20050;-73
2023/05/31 05:17:15;;;;;;;7.50;2.58;;;27.20;28.60;;;;;;5034325;28;20120;-73
2023/05/31 05:19:41;;;;;;;4.35;2.63;;;;;;;;;;5028369;28;20025;-73
2023/05/31 05:22:08;;;;;;;6.55;2.80;;;;;;;;;;5041069;28;20025;-74
2023/05/31 05:24:33;;;;;;;7.25;2.90;;;25.80;31.00;;;;;;5038894;28;20117;-75
2023/05/31 05:26:59;;;;;;;5.50;2.65;;;25.70;30.70;;;;;;5047426;28;20103;-72
2023/05/31 05:29:24;;;;;;;5.57;3.17;;;26.00;30.20;;;;;;5029381;28;20458;-74
2023/05/31 05:31:50;;;;;;;6.70;2.97;;;27.40;29.10;;;;;;5038857;28;20063;-73
2023/05/31 05:34:16;;;;;;;4.68;3.00;;;;;;;;;;5046273;28;20032;-73
2023/05/31 05:36:44;;;;;;;9.73;3.30;;;26.90;29.60;;;;;;5036125;28;20022;-74
2023/05/31 05:39:11;;;;;;;11.45;3.47;;;28.10;28.10;;;;;;5013971;28;20033;-74
2023/05/31 05:41:37;;;;;;;7.55;4.07;;;;;;;;;;5046567;28;20017;-73
2023/05/31 05:44:03;;;;;;;9.05;3.33;;;;;;;;;;5040383;28;20025;-73
2023/05/31 05:46:29;;;;;;;7.43;3.70;;;;;;;;;;5028092;28;20025;-73
2023/05/31 05:48:55;;;;;;;7.20;3.67;;;;;;;;;;5026569;28;20491;-73
2023/05/31 05:51:21;;;;;;;7.72;3.53;;;;;;;;;;5047995;28;20056;-73
2023/05/31 05:53:46;;;;;;;7.45;3.40;;;26.60;31.20;;;;;;5037968;28;20049;-73
2023/05/31 05:56:17;;;;;;;7.75;3.58;;;27.40;30.20;;;;;;5041360;28;20501;-73
2023/05/31 05:58:43;;;;;;;7.45;3.45;;;27.60;29.20;;;;;;5044913;28;20029;-73
2023/05/31 06:01:12;;;;;;;7.05;3.13;;;;;;;;;;5034631;28;20534;-73
2023/05/31 06:03:38;;;;;;;9.63;3.30;;;27.30;30.00;;;;;;5046129;28;20025;-75
2023/05/31 06:06:04;;;;;;;6.80;3.72;;;;;;;;;;5040424;28;20025;-73
2023/05/31 06:08:30;;;;;;;6.57;3.38;;;26.90;30.50;;;;;;5037800;28;20026;-73
2023/05/31 06:10:55;;;;;;;5.03;3.08;;;29.00;27.90;;;;;;5047367;28;20094;-73
2023/05/31 06:13:21;;;;;;;9.20;3.78;;;;;;;;;;5034317;28;20036;-73
2023/05/31 06:15:47;;;;;;;5.70;3.05;;;28.40;28.50;;;;;;5027263;28;20026;-74
2023/05/31 06:18:14;;;;;;;8.52;3.63;;;29.00;27.50;;;;;;5041472;28;20054;-74
2023/05/31 06:20:41;;;;;;;9.98;4.10;;;29.30;27.40;;;;;;5038038;28;20112;-73
2023/05/31 06:23:06;;;;;;;8.25;3.30;;;30.40;26.70;;;;;;5028540;28;20032;-75
2023/05/31 06:25:33;;;;;;;11.48;3.40;;;29.80;26.10;;;;;;5035715;28;20044;-72
2023/05/31 06:27:58;;;;;;;6.70;2.72;;;30.10;25.80;;;;;;5042045;28;20022;-72
2023/05/31 06:30:25;;;;;;;6.32;3.53;;;;;;;;;;5042692;28;20029;-73
2023/05/31 06:32:51;;;;;;;7.22;3.50;;;;;;;;;;5017939;28;20104;-73
2023/05/31 06:35:17;;;;;;;10.20;3.60;;;27.90;29.20;;;;;;5046934;28;20032;-75
2023/05/31 06:37:44;;;;;;;9.82;3.20;;;;;;;;;;5036140;28;20100;-74
2023/05/31 06:40:10;;;;;;;8.32;3.58;;;;;;;;;;5041474;28;20451;-74
2023/05/31 06:42:36;;;;;;;9.05;3.00;;;27.40;29.80;;;;;;5044047;28;20491;-75
2023/05/31 06:45:02;;;;;;;7.10;3.17;;;28.40;28.30;;;;;;5034005;28;20028;-74
2023/05/31 06:47:28;;;;;;;7.72;3.38;;;29.00;28.00;;;;;;5034879;28;20013;-75
2023/05/31 06:49:53;;;;;;;5.97;2.60;;;29.30;27.30;;;;;;5043559;28;20109;-73
2023/05/31 06:52:19;;;;;;;8.98;3.60;;;28.70;28.30;;;;;;5041779;28;20106;-74
2023/05/31 06:54:45;;;;;;;9.05;3.30;;;30.70;26.10;;;;;;5036426;28;20055;-74
2023/05/31 06:57:10;;;;;;;7.95;3.35;;;31.10;25.20;;;;;;5046297;28;20025;-74
2023/05/31 06:59:36;;;;;;;9.60;3.33;;;29.80;26.40;;;;;;5035368;28;20519;-75
2023/05/31 07:02:02;;;;;;;13.27;3.50;;;29.30;27.20;;;;;;5024646;28;20073;-77
2023/05/31 07:04:28;;;;;;;10.35;3.38;;;;;;;;;;5025793;28;20025;-76
2023/05/31 07:06:53;;;;;;;8.20;3.15;;;28.20;28.90;;;;;;5018710;28;20435;-76
2023/05/31 07:09:19;;;;;;;10.38;3.72;;;;;;;;;;5051231;28;20041;-75
2023/05/31 07:11:46;;;;;;;7.82;3.65;;;;;;;;;;5025265;28;20476;-75
2023/05/31 07:14:11;;;;;;;7.55;3.42;;;27.40;29.70;;;;;;5044164;28;20504;-76
2023/05/31 07:16:37;;;;;;;9.95;3.25;;;29.30;28.00;;;;;;5043908;28;20032;-75
2023/05/31 07:19:03;;;;;;;7.50;3.78;;;31.60;24.80;;;;;;5031741;28;20064;-75
2023/05/31 07:21:29;;;;;;;9.43;3.35;;;31.40;24.80;;;;;;5045497;28;20642;-75
2023/05/31 07:23:55;;;;;;;7.35;3.05;;;30.70;24.90;;;;;;5057447;23;20049;-78
2023/05/31 07:26:22;;;;;;;9.65;3.28;;;30.10;25.80;;;;;;5038168;28;20030;-78
2023/05/31 07:28:47;;;;;;;3.95;2.30;;;31.60;24.90;;;;;;5043436;28;20036;-77
2023/05/31 07:31:15;;;;;;;10.10;2.95;;;31.50;24.00;;;;;;5033909;28;20033;-78
2023/05/31 07:33:41;;;;;;;7.75;2.72;;;30.70;24.90;;;;;;5044392;28;20028;-78
2023/05/31 07:36:07;;;;;;;9.43;3.60;;;31.30;23.90;;;;;;5042695;28;20108;-77
2023/05/31 07:38:33;;;;;;;7.30;3.00;;;29.40;26.20;;;;;;5040286;28;20104;-77
2023/05/31 07:40:58;;;;;;;5.53;2.60;;;29.10;27.00;;;;;;5048491;28;20021;-78
2023/05/31 07:43:24;;;;;;;7.78;2.33;;;29.80;25.50;;;;;;5037014;28;20071;-78
2023/05/31 07:45:51;;;;;;;5.05;2.33;;;29.10;25.70;;;;;;5046738;28;20021;-78
2023/05/31 07:48:17;;;;;;;5.75;2.40;;;31.10;25.00;;;;;;5044078;28;20036;-78
2023/05/31 07:50:43;;;;;;;4.72;2.70;;;31.90;22.90;;;;;;5039672;28;20029;-77
2023/05/31 07:53:09;;;;;;;3.42;2.03;;;30.30;24.70;;;;;;5050331;28;20116;-78
2023/05/31 07:55:35;;;;;;;5.10;1.92;;;31.30;24.50;;;;;;5039328;28;20096;-78
2023/05/31 07:58:01;;;;;;;3.92;2.30;;;31.60;23.40;;;;;;5044834;28;20022;-76
2023/05/31 08:00:26;;;;;;;5.72;2.53;;;31.40;22.80;;;;;;5046002;28;20029;-77
2023/05/31 08:02:52;;;;;;;7.80;2.60;;;31.00;23.50;;;;;;5038425;28;20127;-77
2023/05/31 08:05:18;;;;;;;8.90;2.58;;;30.90;23.40;;;;;;5032352;28;20040;-77
2023/05/31 08:07:43;;;;;;;11.52;2.85;;;31.00;23.60;;;;;;5039437;28;20092;-77
2023/05/31 08:10:10;;;;;;;6.55;2.20;;;31.50;23.80;;;;;;5027401;28;20025;-78
2023/05/31 08:12:35;;;;;;;6.07;2.10;;;33.50;21.90;;;;;;5030696;28;20513;-78
2023/05/31 08:15:01;;;;;;;4.35;2.03;;;34.00;20.50;;;;;;5038817;28;20045;-78
2023/05/31 08:17:27;;;;;;;6.03;2.35;;;34.40;20.00;;;;;;5051681;28;20025;-77
2023/05/31 08:19:52;;;;;;;6.97;2.20;;;34.60;20.20;;;;;;5047030;28;20073;-77
2023/05/31 08:22:18;;;;;;;4.28;1.98;;;35.40;20.00;;;;;;5050775;28;20034;-76
2023/05/31 08:24:44;;;;;;;5.95;2.20;;;34.90;20.50;;;;;;5058440;28;20023;-76
2023/05/31 08:27:09;;;;;;;7.50;2.38;;;33.40;19.90;;;;;;5064409;28;20454;-77
2023/05/31 08:29:35;;;;;;;5.25;2.00;;;32.90;21.30;;;;;;5045419;28;20103;-78
2023/05/31 08:32:01;;;;;;;8.73;2.30;;;34.20;20.40;;;;;;5047947;28;20443;-77
2023/05/31 08:34:27;;;;;;;5.63;2.50;;;34.30;19.70;;;;;;5045530;28;20033;-77
2023/05/31 08:36:52;;;;;;;4.88;1.95;;;33.50;20.70;;;;;;5037784;28;20087;-77
2023/05/31 08:39:18;;;;;;;6.25;1.83;;;;;;;;;;5048669;28;20024;-76
2023/05/31 08:42:00;;;;;;;8.15;2.15;;;32.30;21.50;;;;;;5038597;28;20481;-75
2023/05/31 08:44:26;;;;;;;4.60;2.20;;;29.70;24.70;;;;;;5043147;28;20111;-78
2023/05/31 08:46:52;;;;;;;7.60;2.42;;;;;;;;;;5034250;28;20782;-75
2023/05/31 08:49:18;;;;;;;7.28;2.28;;;;;;;;;;5049092;28;20116;-77
2023/05/31 08:51:45;;;;;;;7.35;2.10;;;28.90;24.50;;;;;;5039755;28;20490;-75
2023/05/31 08:54:12;;;;;;;6.07;1.83;;;29.70;24.70;;;;;;5025643;28;20029;-77
2023/05/31 08:56:39;;;;;;;4.65;1.80;;;30.70;23.50;;;;;;5046096;28;20483;-77
2023/05/31 08:59:10;;;;;;;5.25;1.90;;;31.90;22.20;;;;;;5037052;28;20065;-77
2023/05/31 09:01:37;;;;;;;4.88;1.60;;;33.30;20.70;;;;;;5050388;28;20114;-77
2023/05/31 09:04:05;;;;;;;4.47;1.90;;;;;;;;;;5035724;28;20021;-78
2023/05/31 09:06:32;;;;;;;5.18;2.08;;;35.10;20.00;;;;;;5048002;28;20101;-77
2023/05/31 09:08:59;;;;;;;3.45;1.92;;;35.60;19.80;;;;;;5037504;28;20037;-77
2023/05/31 09:11:25;;;;;;;6.10;1.88;;;34.80;19.50;;;;;;5036239;28;20013;-77
2023/05/31 09:13:51;;;;;;;5.28;1.90;;;34.00;21.00;;;;;;5045830;28;20021;-77
2023/05/31 09:16:17;;;;;;;3.85;1.70;;;34.00;21.50;;;;;;5047503;28;20036;-78
2023/05/31 09:18:42;;;;;;;7.18;2.70;;;32.30;21.70;;;;;;5040766;28;20132;-78
2023/05/31 09:21:12;;;;;;;4.07;2.20;;;;;;;;;;5052275;28;20048;-78
2023/05/31 09:23:50;;;;;;;5.20;1.80;;;31.20;22.50;;;;;;5040126;28;20053;-78
2023/05/31 09:26:16;;;;;;;3.80;1.95;;;31.20;23.80;;;;;;5044173;28;20033;-78
2023/05/31 09:28:51;;;;;;;5.97;2.00;;;31.70;22.30;;;;;;5048985;28;20017;-77
2023/05/31 09:31:17;;;;;;;5.70;1.98;;;31.40;23.10;;;;;;5038075;28;20041;-77
2023/05/31 09:33:45;;;;;;;6.68;2.40;;;30.00;24.10;;;;;;5050806;28;20036;-77
2023/05/31 09:36:12;;;;;;;4.55;2.00;;;30.20;24.40;;;;;;5050831;28;20025;-77
2023/05/31 09:38:39;;;;;;;5.68;1.90;;;;;;;;;;5043961;28;20029;-77
2023/05/31 09:41:35;;;;;;;4.68;1.90;;;;;;;;;;5048679;28;20029;-77
2023/05/31 09:44:01;;;;;;;5.70;2.03;;;;;;;;;;5025485;28;20029;-77
2023/05/31 09:46:28;;;;;;;6.05;1.90;;;;;;;;;;5042613;28;20025;-77
2023/05/31 09:49:12;;;;;;;7.00;2.00;;;30.00;24.40;;;;;;5017206;28;20026;-77
2023/05/31 09:51:38;;;;;;;5.78;1.40;;;29.90;24.40;;;;;;5043538;28;20025;-78
2023/05/31 09:54:11;;;;;;;4.10;1.58;;;30.40;24.80;;;;;;5047583;28;20033;-77
2023/05/31 09:56:38;;;;;;;5.53;1.88;;;31.00;25.20;;;;;;5045971;28;20063;-77
2023/05/31 09:59:05;;;;;;;4.80;1.90;;;31.50;22.40;;;;;;5035341;28;20113;-78
2023/05/31 10:01:32;;;;;;;4.35;1.60;;;30.20;23.00;;;;;;5052144;28;20025;-78
2023/05/31 10:03:59;;;;;;;7.13;1.92;;;;;;;;;;5044262;28;20356;-77
2023/05/31 10:06:25;;;;;;;7.20;2.25;;;;;;;;;;5041837;28;20030;-77
2023/05/31 10:08:51;;;;;;;4.00;1.65;;;;;;;;;;5048631;28;20391;-77
2023/05/31 10:11:19;;;;;;;6.65;1.80;;;;;;;;;;5036849;28;20033;-77
2023/05/31 10:13:47;;;;;;;6.82;1.33;;;;;;;;;;5029470;28;20047;-77
2023/05/31 10:16:15;;;;;;;4.15;1.60;;;;;;;;;;5043061;28;20388;-77
2023/05/31 10:18:47;;;;;;;4.97;1.70;;;;;;;;;;5038016;28;20108;-77
2023/05/31 10:21:22;;;;;;;5.32;1.95;;;;;;;;;;5054228;28;20045;-77
2023/05/31 10:23:51;;;;;;;2.65;1.40;;;;;;;;;;5045005;28;20402;-77
2023/05/31 10:26:18;;;;;;;3.05;1.60;;;;;;;;;;5059064;28;20032;-77
2023/05/31 10:28:59;;;;;;;2.30;1.40;;;;;;;;;;5044797;28;20044;-77
2023/05/31 10:31:29;;;;;;;3.65;1.75;;;;;;;;;;5018735;28;20029;-77
2023/05/31 10:34:00;;;;;;;4.50;1.90;;;;;;;;;;5018922;28;20631;-77
2023/05/31 10:36:28;;;;;;;3.08;1.50;;;;;;;;;;5039925;28;20100;-77
2023/05/31 10:39:00;;;;;;;3.22;1.35;;;;;;;;;;5047175;28;20025;-77
2023/05/31 10:41:30;;;;;;;3.65;1.60;;;;;;;;;;5040773;28;20013;-79
2023/05/31 10:44:03;;;;;;;6.88;1.90;;;;;;;;;;5040120;28;20017;-76
2023/05/31 10:46:31;;;;;;;4.63;2.00;;;;;;;;;;5038485;28;20049;-77
2023/05/31 10:48:58;;;;;;;4.53;2.33;;;;;;;;;;5044799;28;20027;-77
2023/05/31 10:51:44;;;;;;;4.07;1.58;;;;;;;;;;5047163;28;20026;-76
2023/05/31 10:54:14;;;;;;;7.78;2.13;;;;;;;;;;5038500;28;20105;-76
2023/05/31 10:56:40;;;;;;;6.53;1.83;;;;;;;;;;5036316;28;20021;-77
2023/05/31 10:59:10;;;;;;;4.38;1.52;;;;;;;;;;5012916;28;20028;-77
2023/05/31 11:01:36;;;;;;;6.82;1.70;;;;;;;;;;5044092;28;20025;-77
2023/05/31 11:04:02;;;;;;;3.75;2.00;;;;;;;;;;5038685;28;20013;-77
2023/05/31 11:06:36;;;;;;;4.78;1.60;;;;;;;;;;5037536;28;20076;-77
2023/05/31 11:09:08;;;;;;;4.45;1.60;;;;;;;;;;5046315;28;20032;-77
2023/05/31 11:11:34;;;;;;;5.15;1.90;;;;;;;;;;5038971;28;20025;-77
2023/05/31 11:14:00;;;;;;;4.00;1.50;;;;;;;;;;5027829;28;20725;-77
2023/05/31 11:16:27;;;;;;;5.35;1.75;;;;;;;;;;5035394;28;20036;-77
2023/05/31 11:19:06;;;;;;;4.60;1.80;;;;;;;;;;5049745;28;20510;-77
2023/05/31 11:21:51;;;;;;;6.80;1.90;;;;;;;;;;5046208;28;20031;-77
2023/05/31 11:24:30;;;;;;;4.22;1.58;;;;;;;;;;5048316;28;20468;-77
2023/05/31 11:26:59;;;;;;;6.88;1.65;;;;;;;;;;5037361;28;20101;-77
2023/05/31 11:29:26;;;;;;;6.43;1.80;;;;;;;;;;5054831;28;20069;-77
2023/05/31 11:31:55;;;;;;;9.85;1.73;;;;;;;;;;5037020;28;20029;-77
2023/05/31 11:34:23;;;;;;;4.20;1.95;;;;;;;;;;5040931;28;20026;-76
2023/05/31 11:36:50;;;;;;;3.95;1.73;;;;;;;;;;5050148;28;20025;-76
2023/05/31 11:39:17;;;;;;;5.68;2.13;;;;;;;;;;5019283;28;20029;-77
2023/05/31 11:41:44;;;;;;;7.90;2.92;;;;;;;;;;5048289;28;20013;-77
2023/05/31 11:44:15;;;;;;;4.35;1.75;;;;;;;;;;5044090;28;20027;-78
2023/05/31 11:46:43;;;;;;;5.85;2.33;;;;;;;;;;5053680;28;20509;-77
2023/05/31 11:49:09;;;;;;;6.93;1.85;;;;;;;;;;5052883;28;20129;-78
2023/05/31 11:51:36;;;;;;;3.72;1.70;;;;;;;;;;5052686;28;20072;-78
2023/05/31 11:54:03;;;;;;;5.72;1.92;;;;;;;;;;5054297;28;20025;-78
2023/05/31 11:56:38;;;;;;;5.35;1.65;;;;;;;;;;5053213;28;20487;-78
2023/05/31 11:59:05;;;;;;;7.07;2.03;;;;;;;;;;5035711;28;20029;-78
2023/05/31 12:01:37;;;;;;;7.28;2.28;;;;;;;;;;5054560;28;20021;-78
2023/05/31 12:04:04;;;;;;;5.35;1.92;;;;;;;;;;5054222;28;20025;-78
2023/05/31 12:06:31;;;;;;;6.25;1.92;;;;;;;;;;5054587;28;20021;-78
2023/05/31 12:08:57;;;;;;;5.47;2.20;;;;;;;;;;5053753;28;20032;-78
2023/05/31 12:11:23;;;;;;;6.40;1.73;;;;;;;;;;5054341;28;20453;-78
2023/05/31 12:13:49;;;;;;;4.15;1.98;;;;;;;;;;5054020;28;20037;-78
2023/05/31 12:16:15;;;;;;;5.88;2.08;;;;;;;;;;5036400;28;20021;-78
2023/05/31 12:18:41;;;;;;;6.53;1.83;;;;;;;;;;5053466;28;20071;-78
2023/05/31 12:21:08;;;;;;;6.22;2.08;;;;;;;;;;5053268;28;20399;-77
2023/05/31 12:23:51;;;;;;;11.55;1.85;;;;;;;;;;5054183;28;20082;-78
2023/05/31 12:26:17;;;;;;;5.47;1.85;;;;;;;;;;5042722;28;20025;-79
2023/05/31 12:28:43;;;;;;;6.47;2.00;;;;;;;;;;5061293;28;20123;-79
2023/05/31 12:31:09;;;;;;;3.75;2.05;;;;;;;;;;5061139;28;20032;-79
2023/05/31 12:33:35;;;;;;;4.47;1.60;;;;;;;;;;5056471;28;20147;-78
2023/05/31 12:36:03;;;;;;;3.20;1.83;;;;;;;;;;5054561;28;20116;-79
2023/05/31 12:38:29;;;;;;;4.25;1.70;;;;;;;;;;5054597;28;20032;-78
2023/05/31 12:40:56;;;;;;;3.15;1.80;;;;;;;;;;5054387;28;20021;-78
2023/05/31 12:43:22;;;;;;;5.13;2.20;;;;;;;;;;5053786;28;20163;-77
2023/05/31 12:45:48;;;;;;;2.95;1.60;;;;;;;;;;5052963;28;20463;-77
2023/05/31 12:48:14;;;;;;;2.25;1.63;;;;;;;;;;5052923;28;20127;-78
2023/05/31 12:50:46;;;;;;;4.20;1.63;;;;;;;;;;5053480;28;20032;-78
2023/05/31 12:53:12;;;;;;;10.38;1.98;;;;;;;;;;5053166;28;20112;-77
2023/05/31 12:55:38;;;;;;;4.22;2.05;;;;;;;;;;5053427;28;20056;-78
2023/05/31 12:58:04;;;;;;;4.40;1.50;;;;;;;;;;5053277;28;20100;-78
2023/05/31 13:00:30;;;;;;;4.75;1.98;;;;;;;;;;5053517;28;20460;-78
2023/05/31 13:02:56;;;;;;;3.95;2.00;;;;;;;;;;5053473;28;20108;-78
2023/05/31 13:05:22;;;;;;;3.67;1.77;;;;;;;;;;5035282;28;20028;-78
2023/05/31 13:07:48;;;;;;;4.03;1.65;;;;;;;;;;5053429;28;20386;-77
2023/05/31 13:10:15;;;;;;;5.60;1.98;;;;;;;;;;5053217;28;20099;-78
2023/05/31 13:12:41;;;;;;;2.92;1.65;;;;;;;;;;5053067;28;20024;-78
2023/05/31 13:15:07;;;;;;;8.38;2.13;;;;;;;;;;5035070;28;20094;-78
2023/05/31 13:17:33;;;;;;;5.20;2.13;;;;;;;;;;5052603;28;20070;-77
2023/05/31 13:19:59;;;;;;;6.53;1.90;;;;;;;;;;5052760;28;20395;-78
2023/05/31 13:22:25;;;;;;;4.93;1.60;;;;;;;;;;5052511;28;20053;-78
2023/05/31 13:24:51;;;;;;;4.93;1.70;;;;;;;;;;5062475;23;20518;-72
2023/05/31 13:27:17;;;;;;;3.78;1.60;;;;;;;;;;5032241;28;20025;-72
2023/05/31 13:29:43;;;;;;;3.22;1.48;;;;;;;;;;5032452;28;20036;-72
2023/05/31 13:32:10;;;;;;;4.47;1.92;;;;;;;;;;5032672;28;20036;-73
2023/05/31 13:34:36;;;;;;;7.97;1.85;;;;;;;;;;5032330;28;20025;-72
2023/05/31 13:37:02;;;;;;;3.55;1.60;;;;;;;;;;5031931;28;20034;-72
2023/05/31 13:39:28;;;;;;;4.65;2.35;;;;;;;;;;5031840;28;20033;-72
2023/05/31 13:41:54;;;;;;;6.20;2.05;;;;;;;;;;5032221;28;20631;-72
2023/05/31 13:44:20;;;;;;;8.73;2.20;;;;;;;;;;5031689;28;20026;-73
2023/05/31 13:46:47;;;;;;;6.68;1.85;;;;;;;;;;5030765;28;20032;-73
2023/05/31 13:49:15;;;;;;;3.95;1.70;;;;;;;;;;5031379;28;20025;-73
2023/05/31 13:51:41;;;;;;;5.53;2.00;;;;;;;;;;5032060;28;20025;-74
2023/05/31 13:54:07;;;;;;;3.63;1.90;;;;;;;;;;5014050;28;20029;-73
2023/05/31 13:56:33;;;;;;;9.05;2.00;;;;;;;;;;5032158;28;20063;-73
2023/05/31 13:58:59;;;;;;;5.80;2.15;;;;;;;;;;5031416;28;20029;-74
2023/05/31 14:01:25;;;;;;;7.53;2.58;;;;;;;;;;5031759;28;20650;-73
2023/05/31 14:03:53;;;;;;;5.38;1.95;;;;;;;;;;5032130;28;20031;-73
2023/05/31 14:06:20;;;;;;;5.50;2.22;;;;;;;;;;5014062;28;20031;-73
2023/05/31 14:08:46;;;;;;;4.47;1.75;;;;;;;;;;5031167;28;20557;-73
2023/05/31 14:11:13;;;;;;;8.00;2.13;;;;;;;;;;5031650;28;20069;-74
2023/05/31 14:13:39;;;;;;;9.45;2.13;;;;;;;;;;5031579;28;20484;-73